Terminal Aerodrome Forecast
Issued by NWS

Home | Current Version | Previous Version | Text Only | Print | Product List | Glossary Off
Versions: 1 2 3 4 5 6 7 8 9 10 11 12 13 14 15 16 17 18 19

000
FTUS43 KJKL 071158 AAA
TAFSME
TAF AMD
KSME 071158Z 0712/0812 00000KT P6SM BKN015
     FM071400 VRB03KT P6SM SCT020 BKN200
     FM071600 22008G15KT P6SM VCSH BKN035 OVC200
     FM080000 00000KT 6SM BR OVC250
     FM080400 21003KT 4SM BR OVC100=

USA.gov is the U.S. government's official web portal to all federal, state and local government web resources and services.